Time;durP1;ratioP1;P1;durP2;ratioP2;P2;SDS_P1;SDS_P2;PMS_P1;PMS_P2;Temp;Humidity;BMP_temperature;BMP_pressure;BME280_temperature;BME280_humidity;BME280_pressure;Samples;Min_cycle;Max_cycle;Signal;HPM_P1;HPM_P2
2022/03/15 00:00:40;;;;;;;3.33;2.70;;;;;;;;;;4921123;29;20216;-63
2022/03/15 00:03:07;;;;;;;6.27;1.90;;;;;;;;;;4918533;29;20266;-63
2022/03/15 00:05:34;;;;;;;6.13;2.23;;;;;;;;;;4921235;29;20197;-63
2022/03/15 00:08:01;;;;;;;4.83;2.83;;;;;;;;;;4919888;29;20219;-63
2022/03/15 00:10:29;;;;;;;15.30;5.63;;;;;;;;;;4918040;29;20836;-63
2022/03/15 00:12:56;;;;;;;10.50;3.60;;;;;;;;;;4920074;29;20968;-63
2022/03/15 00:15:24;;;;;;;4.83;2.70;;;;;;;;;;4913021;29;20214;-63
2022/03/15 00:17:53;;;;;;;21.40;6.93;;;;;;;;;;4919138;29;20303;-63
2022/03/15 00:20:21;;;;;;;22.60;7.40;;;;;;;;;;4917706;29;20240;-62
2022/03/15 00:22:49;;;;;;;9.97;4.00;;;;;;;;;;4926357;29;20213;-62
2022/03/15 00:25:17;;;;;;;5.13;2.20;;;;;;;;;;4920308;29;20216;-63
2022/03/15 00:27:45;;;;;;;5.77;3.33;;;;;;;;;;4917708;29;20212;-63
2022/03/15 00:30:14;;;;;;;2.93;2.00;;;;;;;;;;4919505;29;20229;-63
2022/03/15 00:32:41;;;;;;;3.13;2.17;;;;;;;;;;4917255;29;20985;-63
2022/03/15 00:35:11;;;;;;;3.37;1.80;;;;;;;;;;4916236;29;20211;-62
2022/03/15 00:37:38;;;;;;;1.90;1.57;;;;;;;;;;4912962;29;20737;-62
2022/03/15 00:40:06;;;;;;;5.77;2.13;;;;;;;;;;4917070;29;20295;-63
2022/03/15 00:42:33;;;;;;;14.87;7.40;;;;;;;;;;4921246;29;20219;-62
2022/03/15 00:45:01;;;;;;;9.77;5.13;;;;;;;;;;4922173;29;20210;-62
2022/03/15 00:47:28;;;;;;;4.03;2.80;;;;;;;;;;4923630;29;20270;-62
2022/03/15 00:49:56;;;;;;;3.63;2.03;;;;;;;;;;4920627;29;20212;-63
2022/03/15 00:52:24;;;;;;;3.80;2.53;;;;;;;;;;4922790;29;20777;-63
2022/03/15 00:54:51;;;;;;;5.47;2.93;;;;;;;;;;4924292;29;20799;-65
2022/03/15 00:57:18;;;;;;;14.27;4.57;;;;;;;;;;4920592;29;20211;-63
2022/03/15 00:59:45;;;;;;;1.83;1.73;;;;;;;;;;4921915;29;20254;-63
2022/03/15 01:02:13;;;;;;;2.23;2.03;;;;;;;;;;4918172;29;20214;-62
2022/03/15 01:04:40;;;;;;;2.73;2.10;;;;;;;;;;4919947;29;20219;-63
2022/03/15 01:07:07;;;;;;;11.03;3.20;;;;;;;;;;4920038;29;20272;-63
2022/03/15 01:09:36;;;;;;;1.77;1.67;;;;;;;;;;4921731;29;20611;-63
2022/03/15 01:12:03;;;;;;;3.60;2.13;;;;;;;;;;4920941;29;20230;-63
2022/03/15 01:14:30;;;;;;;2.77;2.27;;;;;;;;;;4922798;29;21295;-63
2022/03/15 01:16:57;;;;;;;4.00;2.20;;;;;;;;;;4921876;29;20269;-62
2022/03/15 01:19:24;;;;;;;8.73;3.27;;;;;;;;;;4923671;29;20295;-63
2022/03/15 01:21:52;;;;;;;3.50;1.83;;;;;;;;;;4926450;29;20210;-63
2022/03/15 01:24:19;;;;;;;2.63;2.20;;;;;;;;;;4925925;29;20259;-62
2022/03/15 01:26:47;;;;;;;4.00;2.07;;;;;;;;;;4920080;29;20213;-62
2022/03/15 01:29:15;;;;;;;3.93;2.17;;;;;;;;;;4923098;29;20226;-63
2022/03/15 01:31:42;;;;;;;2.83;1.70;;;;;;;;;;4923116;29;20241;-63
2022/03/15 01:34:09;;;;;;;4.60;1.60;;;;;;;;;;4922012;29;20312;-63
2022/03/15 01:36:36;;;;;;;2.77;1.53;;;;;;;;;;4919027;29;20214;-63
2022/03/15 01:39:04;;;;;;;1.57;1.47;;;;;;;;;;4922316;29;20269;-62
2022/03/15 01:41:35;;;;;;;1.67;1.50;;;;;;;;;;4922918;29;20295;-62
2022/03/15 01:44:04;;;;;;;1.97;1.50;;;;;;;;;;4918296;29;20208;-62
2022/03/15 01:46:32;;;;;;;1.90;1.80;;;;;;;;;;4917724;29;20250;-62
2022/03/15 01:48:59;;;;;;;3.17;1.50;;;;;;;;;;4922262;29;20216;-62
2022/03/15 01:51:26;;;;;;;3.17;1.80;;;;;;;;;;4917258;29;20776;-63
2022/03/15 01:53:53;;;;;;;1.57;1.50;;;;;;;;;;4918371;29;20309;-63
2022/03/15 01:56:20;;;;;;;2.10;2.00;;;;;;;;;;4920277;29;20214;-63
2022/03/15 01:58:47;;;;;;;2.87;1.63;;;;;;;;;;4920350;29;20209;-64
2022/03/15 02:01:16;;;;;;;2.13;1.90;;;;;;;;;;4924847;29;20686;-63
2022/03/15 02:03:43;;;;;;;2.00;1.90;;;;;;;;;;4917853;29;20290;-63
2022/03/15 02:06:10;;;;;;;2.67;1.60;;;;;;;;;;4919826;29;20214;-62
2022/03/15 02:08:37;;;;;;;2.50;2.13;;;;;;;;;;4917457;29;20662;-63
2022/03/15 02:11:06;;;;;;;1.90;1.80;;;;;;;;;;4921001;29;20223;-63
2022/03/15 02:13:33;;;;;;;1.87;1.73;;;;;;;;;;4921371;29;20321;-62
2022/03/15 02:16:00;;;;;;;2.17;1.70;;;;;;;;;;4921981;29;20835;-63
2022/03/15 02:18:29;;;;;;;1.77;1.77;;;;;;;;;;4920906;29;20281;-62
2022/03/15 02:20:57;;;;;;;1.23;1.17;;;;;;;;;;4922357;29;20206;-62
2022/03/15 02:23:24;;;;;;;2.07;1.93;;;;;;;;;;4922061;29;20686;-63
2022/03/15 02:25:51;;;;;;;1.93;1.73;;;;;;;;;;4919087;29;20212;-63
2022/03/15 02:28:18;;;;;;;2.03;1.80;;;;;;;;;;4919603;29;20214;-62
2022/03/15 02:30:45;;;;;;;3.23;1.73;;;;;;;;;;4917610;29;20603;-62
2022/03/15 02:33:13;;;;;;;4.80;2.40;;;;;;;;;;4918051;29;20531;-62
2022/03/15 02:35:40;;;;;;;2.60;1.97;;;;;;;;;;4917267;29;20220;-62
2022/03/15 02:38:08;;;;;;;3.10;2.00;;;;;;;;;;4917873;29;20221;-62
2022/03/15 02:40:35;;;;;;;2.63;2.03;;;;;;;;;;4923250;29;20325;-62
2022/03/15 02:43:03;;;;;;;4.03;2.00;;;;;;;;;;4921557;29;20216;-62
2022/03/15 02:45:30;;;;;;;2.47;2.23;;;;;;;;;;4921735;29;20215;-62
2022/03/15 02:47:57;;;;;;;1.50;1.50;;;;;;;;;;4920247;29;20205;-62
2022/03/15 02:50:24;;;;;;;2.07;1.87;;;;;;;;;;4920721;29;20303;-62
2022/03/15 02:52:51;;;;;;;3.80;2.13;;;;;;;;;;4922883;29;20699;-61
2022/03/15 02:55:20;;;;;;;2.97;1.87;;;;;;;;;;4920418;29;20234;-62
2022/03/15 02:57:48;;;;;;;4.13;2.13;;;;;;;;;;4926674;29;20747;-62
2022/03/15 03:00:16;;;;;;;2.10;2.00;;;;;;;;;;4941151;29;20213;-62
2022/03/15 03:02:43;;;;;;;3.70;2.30;;;;;;;;;;4931991;29;20296;-62
2022/03/15 03:05:10;;;;;;;4.47;2.20;;;;;;;;;;4931421;29;20216;-62
2022/03/15 03:07:38;;;;;;;2.30;1.97;;;;;;;;;;4931380;29;20265;-62
2022/03/15 03:10:05;;;;;;;3.47;1.70;;;;;;;;;;4931331;29;20331;-63
2022/03/15 03:12:34;;;;;;;1.90;1.80;;;;;;;;;;4931232;29;20251;-62
2022/03/15 03:15:02;;;;;;;2.87;2.20;;;;;;;;;;4930228;29;20312;-63
2022/03/15 03:17:30;;;;;;;1.63;1.50;;;;;;;;;;4931023;29;20226;-63
2022/03/15 03:19:57;;;;;;;2.33;2.13;;;;;;;;;;4931197;29;20552;-63
2022/03/15 03:22:24;;;;;;;2.47;2.27;;;;;;;;;;4931130;29;20230;-62
2022/03/15 03:24:51;;;;;;;1.83;1.80;;;;;;;;;;4927380;29;20211;-62
2022/03/15 03:27:18;;;;;;;2.50;2.10;;;;;;;;;;4931048;29;20221;-62
2022/03/15 03:29:46;;;;;;;3.13;2.17;;;;;;;;;;4930912;29;21145;-61
2022/03/15 03:32:14;;;;;;;2.83;2.63;;;;;;;;;;4930729;29;20241;-62
2022/03/15 03:34:41;;;;;;;2.33;2.13;;;;;;;;;;4931267;29;20225;-62
2022/03/15 03:37:08;;;;;;;2.50;2.30;;;;;;;;;;4931329;29;20218;-62
2022/03/15 03:39:35;;;;;;;3.60;2.40;;;;;;;;;;4931252;29;20213;-62
2022/03/15 03:42:03;;;;;;;1.87;1.80;;;;;;;;;;4931344;29;20208;-62
2022/03/15 03:44:30;;;;;;;6.00;2.23;;;;;;;;;;4923934;29;20208;-62
2022/03/15 03:46:58;;;;;;;2.20;1.60;;;;;;;;;;4920254;29;20221;-62
2022/03/15 03:49:25;;;;;;;3.60;1.93;;;;;;;;;;4931370;29;20225;-62
2022/03/15 03:51:52;;;;;;;4.20;2.30;;;;;;;;;;4931176;29;20210;-62
2022/03/15 03:54:19;;;;;;;2.77;1.93;;;;;;;;;;4930806;29;20732;-62
2022/03/15 03:56:46;;;;;;;2.63;2.07;;;;;;;;;;4930811;29;20216;-61
2022/03/15 03:59:13;;;;;;;4.10;2.20;;;;;;;;;;4930807;29;20651;-62
2022/03/15 04:01:40;;;;;;;2.80;2.43;;;;;;;;;;4931197;29;20220;-62
2022/03/15 04:04:10;;;;;;;3.87;2.47;;;;;;;;;;4926250;29;20268;-62
2022/03/15 04:06:37;;;;;;;1.83;1.73;;;;;;;;;;4930929;29;20238;-62
2022/03/15 04:09:05;;;;;;;2.50;2.30;;;;;;;;;;4930593;29;21006;-62
2022/03/15 04:11:32;;;;;;;2.30;1.83;;;;;;;;;;4930635;29;20346;-62
2022/03/15 04:13:59;;;;;;;2.57;1.80;;;;;;;;;;4930430;29;21093;-61
2022/03/15 04:16:26;;;;;;;2.47;2.27;;;;;;;;;;4930562;29;20578;-61
2022/03/15 04:18:53;;;;;;;3.10;2.10;;;;;;;;;;4934196;29;20213;-62
2022/03/15 04:21:24;;;;;;;3.93;2.17;;;;;;;;;;4916120;29;20235;-61
2022/03/15 04:23:51;;;;;;;3.60;2.40;;;;;;;;;;4933699;29;20210;-61
2022/03/15 04:26:18;;;;;;;2.60;2.13;;;;;;;;;;4934556;29;20211;-61
2022/03/15 04:28:45;;;;;;;2.40;2.10;;;;;;;;;;4933665;29;20214;-61
2022/03/15 04:31:13;;;;;;;2.67;1.87;;;;;;;;;;4933582;29;20960;-61
2022/03/15 04:33:40;;;;;;;1.70;1.60;;;;;;;;;;4934069;29;20323;-61
2022/03/15 04:36:07;;;;;;;2.50;2.30;;;;;;;;;;4934345;29;20216;-61
2022/03/15 04:38:36;;;;;;;2.50;1.60;;;;;;;;;;4934353;29;20205;-61
2022/03/15 04:41:03;;;;;;;3.37;2.23;;;;;;;;;;4934237;29;20207;-61
2022/03/15 04:43:30;;;;;;;2.13;1.80;;;;;;;;;;4933394;29;20622;-61
2022/03/15 04:45:57;;;;;;;5.17;2.03;;;;;;;;;;4933798;29;20211;-61
2022/03/15 04:48:24;;;;;;;1.83;1.73;;;;;;;;;;4934186;29;20218;-61
2022/03/15 04:50:52;;;;;;;2.23;2.03;;;;;;;;;;4933946;29;20213;-61
2022/03/15 04:53:19;;;;;;;2.57;2.37;;;;;;;;;;4933686;29;20722;-61
2022/03/15 04:55:48;;;;;;;6.70;2.17;;;;;;;;;;4933737;29;20301;-61
2022/03/15 04:58:15;;;;;;;2.30;2.10;;;;;;;;;;4934027;29;20621;-61
2022/03/15 05:00:42;;;;;;;2.87;1.47;;;;;;;;;;4929575;29;20450;-61
2022/03/15 05:03:09;;;;;;;1.47;1.37;;;;;;;;;;4933028;29;20209;-62
2022/03/15 05:05:36;;;;;;;3.80;2.27;;;;;;;;;;4933280;29;20214;-62
2022/03/15 05:08:04;;;;;;;5.60;2.93;;;;;;;;;;4933138;29;20211;-62
2022/03/15 05:13:18;;;;;;;2.03;1.87;;;;;;;;;;4933029;29;20238;-62
2022/03/15 05:15:45;;;;;;;2.40;2.20;;;;;;;;;;4930974;29;20235;-62
2022/03/15 05:18:12;;;;;;;6.73;1.60;;;;;;;;;;4933296;29;20227;-63
2022/03/15 05:20:39;;;;;;;4.10;1.77;;;;;;;;;;4929183;29;20881;-62
2022/03/15 05:23:06;;;;;;;2.97;2.00;;;;;;;;;;4933238;29;20702;-62
2022/03/15 05:25:34;;;;;;;2.40;2.20;;;;;;;;;;4930357;29;20243;-63
2022/03/15 05:28:01;;;;;;;5.10;1.83;;;;;;;;;;4932556;29;20697;-63
2022/03/15 05:30:29;;;;;;;2.23;1.83;;;;;;;;;;4928515;29;20228;-62
2022/03/15 05:32:56;;;;;;;1.77;1.67;;;;;;;;;;4928959;29;20249;-62
2022/03/15 05:35:23;;;;;;;3.70;1.60;;;;;;;;;;4929022;29;20505;-62
2022/03/15 05:37:50;;;;;;;2.10;1.77;;;;;;;;;;4931198;29;20237;-62
2022/03/15 05:40:18;;;;;;;1.70;1.60;;;;;;;;;;4931242;29;20270;-62
2022/03/15 05:42:45;;;;;;;2.00;1.90;;;;;;;;;;4933259;29;20448;-62
2022/03/15 05:45:12;;;;;;;2.47;2.27;;;;;;;;;;4930929;29;20209;-62
2022/03/15 05:47:41;;;;;;;1.93;1.77;;;;;;;;;;4933050;29;20280;-62
2022/03/15 05:50:08;;;;;;;1.90;1.67;;;;;;;;;;4931412;29;20624;-62
2022/03/15 05:52:35;;;;;;;2.00;1.90;;;;;;;;;;4933296;29;20318;-62
2022/03/15 05:55:02;;;;;;;1.93;1.80;;;;;;;;;;4930600;29;20225;-62
2022/03/15 05:57:29;;;;;;;1.20;1.10;;;;;;;;;;4932726;29;20217;-62
2022/03/15 05:59:56;;;;;;;2.23;2.03;;;;;;;;;;4930717;29;20220;-63
2022/03/15 06:02:23;;;;;;;1.50;1.30;;;;;;;;;;4930246;29;20208;-62
2022/03/15 06:04:52;;;;;;;4.73;3.03;;;;;;;;;;4931156;29;20670;-62
2022/03/15 06:07:19;;;;;;;3.97;2.40;;;;;;;;;;4930248;29;20205;-62
2022/03/15 06:09:46;;;;;;;2.27;2.03;;;;;;;;;;4932419;29;20208;-63
2022/03/15 06:12:13;;;;;;;2.37;1.97;;;;;;;;;;4932530;29;20613;-63
2022/03/15 06:14:40;;;;;;;2.40;2.30;;;;;;;;;;4928988;29;20224;-65
2022/03/15 06:17:07;;;;;;;5.33;2.67;;;;;;;;;;4926545;29;20216;-63
2022/03/15 06:19:34;;;;;;;5.10;2.53;;;;;;;;;;4932489;29;20222;-63
2022/03/15 06:22:02;;;;;;;2.47;1.83;;;;;;;;;;4930390;29;20243;-62
2022/03/15 06:24:29;;;;;;;3.67;1.67;;;;;;;;;;4932102;29;20204;-62
2022/03/15 06:26:58;;;;;;;1.50;1.10;;;;;;;;;;4928362;29;20215;-62
2022/03/15 06:29:25;;;;;;;5.13;2.20;;;;;;;;;;4932003;29;20243;-63
2022/03/15 06:31:53;;;;;;;1.63;1.53;;;;;;;;;;4927821;29;20301;-65
2022/03/15 06:34:20;;;;;;;1.90;1.80;;;;;;;;;;4930698;29;20373;-63
2022/03/15 06:36:48;;;;;;;3.13;2.67;;;;;;;;;;4928584;29;20778;-63
2022/03/15 06:39:16;;;;;;;2.17;2.00;;;;;;;;;;4931538;29;20583;-63
2022/03/15 06:41:43;;;;;;;1.07;1.07;;;;;;;;;;4931750;29;20779;-63
2022/03/15 06:44:11;;;;;;;3.97;1.97;;;;;;;;;;4932223;29;20224;-63
2022/03/15 06:46:38;;;;;;;1.83;1.73;;;;;;;;;;4931855;29;20217;-63
2022/03/15 06:49:05;;;;;;;7.87;2.00;;;;;;;;;;4931900;29;20211;-63
2022/03/15 06:51:32;;;;;;;2.13;2.03;;;;;;;;;;4931961;29;20769;-63
2022/03/15 06:53:59;;;;;;;2.40;2.23;;;;;;;;;;4921754;29;20235;-64
2022/03/15 06:56:28;;;;;;;2.43;2.30;;;;;;;;;;4918827;29;20678;-63
2022/03/15 06:58:55;;;;;;;2.30;2.10;;;;;;;;;;4931611;29;20210;-63
2022/03/15 07:01:22;;;;;;;2.33;2.13;;;;;;;;;;4932202;29;20245;-63
2022/03/15 07:03:50;;;;;;;2.00;1.90;;;;;;;;;;4932913;29;20669;-63
2022/03/15 07:06:17;;;;;;;4.00;1.50;;;;;;;;;;4942127;29;20215;-63
2022/03/15 07:08:44;;;;;;;1.80;1.70;;;;;;;;;;4931374;29;20221;-63
2022/03/15 07:11:11;;;;;;;1.87;1.77;;;;;;;;;;4931031;29;20701;-63
2022/03/15 07:13:40;;;;;;;2.97;1.43;;;;;;;;;;4931736;29;20212;-63
2022/03/15 07:16:07;;;;;;;1.13;1.13;;;;;;;;;;4931800;29;20213;-61
2022/03/15 07:18:34;;;;;;;3.43;3.07;;;;;;;;;;4931628;29;20274;-64
2022/03/15 07:21:01;;;;;;;1.90;1.80;;;;;;;;;;4931431;29;20218;-62
2022/03/15 07:23:28;;;;;;;2.07;1.90;;;;;;;;;;4931264;29;20222;-62
2022/03/15 07:25:55;;;;;;;2.00;1.47;;;;;;;;;;4931261;29;20965;-62
2022/03/15 07:28:22;;;;;;;1.97;1.77;;;;;;;;;;4931644;29;20271;-63
2022/03/15 07:30:50;;;;;;;4.70;1.83;;;;;;;;;;4942908;29;20235;-63
2022/03/15 07:33:17;;;;;;;1.63;1.53;;;;;;;;;;4930719;29;20240;-62
2022/03/15 07:35:44;;;;;;;1.73;1.63;;;;;;;;;;4930981;29;20714;-63
2022/03/15 07:38:16;;;;;;;2.73;2.53;;;;;;;;;;4930862;29;20207;-62
2022/03/15 07:40:43;;;;;;;1.80;1.70;;;;;;;;;;4931215;29;20218;-62
2022/03/15 07:43:11;;;;;;;1.30;1.30;;;;;;;;;;4930701;29;20270;-62
2022/03/15 07:45:38;;;;;;;2.03;1.70;;;;;;;;;;4931542;29;20271;-63
2022/03/15 07:48:07;;;;;;;0.80;0.80;;;;;;;;;;4930447;29;20247;-63
2022/03/15 07:50:34;;;;;;;3.73;2.47;;;;;;;;;;4931313;29;20585;-63
2022/03/15 07:53:02;;;;;;;2.53;1.20;;;;;;;;;;4930661;29;20212;-63
2022/03/15 07:55:29;;;;;;;2.83;1.57;;;;;;;;;;4931156;29;20238;-63
2022/03/15 07:57:56;;;;;;;3.87;1.70;;;;;;;;;;4930618;29;20219;-63
2022/03/15 08:00:23;;;;;;;1.57;1.30;;;;;;;;;;4931154;29;20621;-63
2022/03/15 08:02:51;;;;;;;1.40;1.30;;;;;;;;;;4922433;29;20208;-63
2022/03/15 08:05:19;;;;;;;1.90;1.63;;;;;;;;;;4928448;29;20289;-63
2022/03/15 08:07:47;;;;;;;2.43;2.10;;;;;;;;;;4930826;29;20211;-63
2022/03/15 08:10:14;;;;;;;2.77;1.50;;;;;;;;;;4930643;29;20729;-63
2022/03/15 08:12:41;;;;;;;5.80;1.87;;;;;;;;;;4930403;29;20211;-63
2022/03/15 08:15:09;;;;;;;1.43;1.33;;;;;;;;;;4930750;29;20599;-63
2022/03/15 08:17:37;;;;;;;6.00;1.53;;;;;;;;;;4930146;29;20218;-65
2022/03/15 08:20:04;;;;;;;2.57;1.30;;;;;;;;;;4932450;29;20236;-63
2022/03/15 08:22:33;;;;;;;4.40;1.70;;;;;;;;;;4928710;29;20218;-63
2022/03/15 08:25:02;;;;;;;1.77;0.90;;;;;;;;;;4930526;29;20208;-63
2022/03/15 08:27:30;;;;;;;3.70;1.47;;;;;;;;;;4929989;29;20215;-63
2022/03/15 08:29:57;;;;;;;2.67;2.00;;;;;;;;;;4930169;29;20291;-64
2022/03/15 08:32:24;;;;;;;1.20;1.20;;;;;;;;;;4929336;29;20232;-62
2022/03/15 08:34:51;;;;;;;2.87;2.50;;;;;;;;;;4927684;29;20595;-62
2022/03/15 08:37:18;;;;;;;3.47;1.40;;;;;;;;;;4930848;29;20208;-63
2022/03/15 08:39:47;;;;;;;1.40;1.40;;;;;;;;;;4930587;29;20211;-63
2022/03/15 08:42:14;;;;;;;8.43;1.67;;;;;;;;;;4930597;29;20211;-62
2022/03/15 08:44:41;;;;;;;1.77;1.67;;;;;;;;;;4930226;29;20207;-63
2022/03/15 08:47:08;;;;;;;4.13;2.50;;;;;;;;;;4926256;29;20666;-63
2022/03/15 08:49:36;;;;;;;4.53;1.50;;;;;;;;;;4929201;29;20215;-63
2022/03/15 08:52:03;;;;;;;8.80;3.13;;;;;;;;;;4929728;29;20638;-63
2022/03/15 08:54:30;;;;;;;7.10;3.83;;;;;;;;;;4929531;29;20294;-63
2022/03/15 08:56:58;;;;;;;3.53;1.93;;;;;;;;;;4923089;29;20220;-63
2022/03/15 08:59:25;;;;;;;2.03;1.90;;;;;;;;;;4921646;29;20220;-63
2022/03/15 09:01:52;;;;;;;1.77;1.67;;;;;;;;;;4927190;29;20218;-62
2022/03/15 09:04:20;;;;;;;1.27;1.23;;;;;;;;;;4931144;29;20295;-62
2022/03/15 09:06:48;;;;;;;1.87;1.77;;;;;;;;;;4931949;29;20215;-63
2022/03/15 09:09:18;;;;;;;1.90;1.27;;;;;;;;;;4931962;29;20290;-63
2022/03/15 09:11:46;;;;;;;1.93;1.50;;;;;;;;;;4932067;29;20216;-63
2022/03/15 09:14:15;;;;;;;2.47;1.57;;;;;;;;;;4930979;29;20303;-63
2022/03/15 09:16:42;;;;;;;3.07;2.77;;;;;;;;;;4931647;29;20697;-63
2022/03/15 09:19:11;;;;;;;4.93;1.80;;;;;;;;;;4932168;29;20216;-63
2022/03/15 09:21:38;;;;;;;2.03;1.90;;;;;;;;;;4932289;29;20243;-63
2022/03/15 09:24:05;;;;;;;1.70;1.60;;;;;;;;;;4939222;29;20226;-63
2022/03/15 09:26:33;;;;;;;2.23;2.03;;;;;;;;;;4931512;29;20594;-63
2022/03/15 09:29:01;;;;;;;2.50;2.20;;;;;;;;;;4931501;29;20330;-63
2022/03/15 09:31:29;;;;;;;1.40;1.40;;;;;;;;;;4931860;29;21161;-63
2022/03/15 09:33:56;;;;;;;1.97;1.77;;;;;;;;;;4931824;29;20208;-62
2022/03/15 09:36:23;;;;;;;1.70;1.60;;;;;;;;;;4931648;29;20247;-63
2022/03/15 09:38:51;;;;;;;1.87;1.77;;;;;;;;;;4931999;29;20275;-61
2022/03/15 09:41:18;;;;;;;1.67;1.57;;;;;;;;;;4931714;29;20260;-61
2022/03/15 09:43:47;;;;;;;6.67;2.13;;;;;;;;;;4932091;29;20310;-61
2022/03/15 09:46:15;;;;;;;3.80;1.77;;;;;;;;;;4933463;29;20239;-62
2022/03/15 09:48:44;;;;;;;4.00;1.50;;;;;;;;;;4930313;29;20298;-62
2022/03/15 09:51:14;;;;;;;1.57;1.47;;;;;;;;;;4931906;29;20656;-62
2022/03/15 09:53:41;;;;;;;1.60;1.50;;;;;;;;;;4931996;29;20218;-62
2022/03/15 09:56:09;;;;;;;1.97;1.57;;;;;;;;;;4932355;29;20236;-62
2022/03/15 09:58:36;;;;;;;1.60;1.50;;;;;;;;;;4932337;29;20307;-62
2022/03/15 10:01:03;;;;;;;5.40;1.70;;;;;;;;;;4931989;29;20207;-62
2022/03/15 10:03:31;;;;;;;2.00;1.90;;;;;;;;;;4931744;29;20446;-62
2022/03/15 10:05:59;;;;;;;2.40;1.60;;;;;;;;;;4932202;29;20673;-62
2022/03/15 10:08:26;;;;;;;2.00;1.90;;;;;;;;;;4931459;29;20219;-62
2022/03/15 10:10:54;;;;;;;1.90;1.80;;;;;;;;;;4931842;29;20216;-62
2022/03/15 10:13:21;;;;;;;2.40;1.63;;;;;;;;;;4932113;29;20238;-62
2022/03/15 10:15:52;;;;;;;3.70;1.63;;;;;;;;;;4930994;29;20275;-62
2022/03/15 10:18:19;;;;;;;1.30;1.20;;;;;;;;;;4913189;29;20271;-62
2022/03/15 10:20:47;;;;;;;2.50;1.70;;;;;;;;;;4913578;29;20608;-62
2022/03/15 10:23:16;;;;;;;1.17;1.17;;;;;;;;;;4927500;29;20204;-61
2022/03/15 10:25:44;;;;;;;1.30;1.30;;;;;;;;;;4932666;29;20196;-63
2022/03/15 10:28:11;;;;;;;3.43;1.57;;;;;;;;;;4932204;29;20208;-65
2022/03/15 10:30:39;;;;;;;1.53;1.50;;;;;;;;;;4927683;29;20369;-61
2022/03/15 10:33:06;;;;;;;2.00;1.90;;;;;;;;;;4930788;29;20251;-61
2022/03/15 10:35:36;;;;;;;2.63;1.50;;;;;;;;;;4931380;29;20275;-62
2022/03/15 10:38:04;;;;;;;2.87;1.93;;;;;;;;;;4931008;29;20216;-64
2022/03/15 10:40:36;;;;;;;2.27;1.90;;;;;;;;;;4928892;29;20230;-63
2022/03/15 10:43:04;;;;;;;1.90;1.80;;;;;;;;;;4929812;29;20582;-63
2022/03/15 10:45:31;;;;;;;2.13;1.87;;;;;;;;;;4924139;29;20214;-63
2022/03/15 10:47:58;;;;;;;3.23;2.13;;;;;;;;;;4931540;29;20232;-63
2022/03/15 10:50:25;;;;;;;2.97;1.87;;;;;;;;;;4931683;29;20304;-63
2022/03/15 10:52:53;;;;;;;4.33;2.30;;;;;;;;;;4935635;29;20215;-63
2022/03/15 10:55:22;;;;;;;3.30;2.03;;;;;;;;;;4932523;29;20226;-63
2022/03/15 10:57:52;;;;;;;4.73;2.60;;;;;;;;;;4931027;29;20208;-63
2022/03/15 11:00:21;;;;;;;2.43;1.73;;;;;;;;;;4921948;29;20201;-63
2022/03/15 11:02:50;;;;;;;3.83;1.93;;;;;;;;;;4926504;29;20614;-62
2022/03/15 11:05:30;;;;;;;2.07;1.90;;;;;;;;;;4931334;29;20215;-63
2022/03/15 11:07:57;;;;;;;3.93;2.77;;;;;;;;;;4931556;29;20247;-62
2022/03/15 11:10:24;;;;;;;2.00;1.90;;;;;;;;;;4926817;29;21779;-62
2022/03/15 11:12:58;;;;;;;2.07;1.97;;;;;;;;;;4924963;29;20209;-63
2022/03/15 11:15:28;;;;;;;3.10;2.37;;;;;;;;;;4930020;29;20224;-63
2022/03/15 11:17:57;;;;;;;3.93;3.03;;;;;;;;;;4931240;29;20219;-64
2022/03/15 11:20:24;;;;;;;2.80;2.43;;;;;;;;;;4930699;29;20220;-64
2022/03/15 11:22:52;;;;;;;3.67;3.00;;;;;;;;;;4931073;29;20222;-61
2022/03/15 11:25:21;;;;;;;3.30;2.80;;;;;;;;;;4921947;29;20258;-62
2022/03/15 11:27:53;;;;;;;4.73;3.13;;;;;;;;;;4930787;29;20690;-63
2022/03/15 11:30:21;;;;;;;2.60;2.40;;;;;;;;;;4929518;29;20681;-62
2022/03/15 11:32:49;;;;;;;3.30;3.00;;;;;;;;;;4934344;29;20231;-62
2022/03/15 11:35:19;;;;;;;10.93;5.20;;;;;;;;;;4929262;29;20648;-63
2022/03/15 11:37:48;;;;;;;7.27;4.20;;;;;;;;;;4930882;29;20215;-62
2022/03/15 11:40:18;;;;;;;4.17;3.10;;;;;;;;;;4925557;29;20228;-62
2022/03/15 11:42:46;;;;;;;6.20;3.20;;;;;;;;;;4928729;29;20199;-62
2022/03/15 11:45:16;;;;;;;2.70;2.40;;;;;;;;;;4926390;29;20212;-64
2022/03/15 11:47:48;;;;;;;6.63;3.30;;;;;;;;;;4923182;29;20212;-61
2022/03/15 11:50:20;;;;;;;3.60;3.17;;;;;;;;;;4926833;29;20223;-62
2022/03/15 11:52:53;;;;;;;5.20;2.97;;;;;;;;;;4924461;29;20687;-62
2022/03/15 11:55:23;;;;;;;5.50;2.90;;;;;;;;;;4931815;29;20235;-61
2022/03/15 11:57:52;;;;;;;3.20;2.87;;;;;;;;;;4932946;29;20207;-62
2022/03/15 12:00:34;;;;;;;1.83;1.53;;;;;;;;;;4927886;29;20219;-62
2022/03/15 12:03:06;;;;;;;3.73;3.00;;;;;;;;;;4928084;28;20215;-62
2022/03/15 12:05:42;;;;;;;2.30;2.10;;;;;;;;;;4926960;29;20967;-63
2022/03/15 12:08:12;;;;;;;2.37;2.17;;;;;;;;;;4935788;29;20586;-62
2022/03/15 12:10:41;;;;;;;2.93;2.63;;;;;;;;;;4917914;29;20204;-62
2022/03/15 12:13:10;;;;;;;3.30;2.63;;;;;;;;;;4925463;29;20216;-62
2022/03/15 12:15:38;;;;;;;3.17;2.43;;;;;;;;;;4926382;29;20227;-61
2022/03/15 12:18:18;;;;;;;4.70;3.70;;;;;;;;;;4925893;29;20617;-61
2022/03/15 12:20:46;;;;;;;3.37;3.07;;;;;;;;;;4919912;29;20935;-61
2022/03/15 12:23:19;;;;;;;5.10;2.80;;;;;;;;;;4922784;29;20649;-61
2022/03/15 12:25:53;;;;;;;10.60;3.60;;;;;;;;;;4926135;29;20220;-61
2022/03/15 12:28:26;;;;;;;4.47;3.67;;;;;;;;;;4922738;29;20242;-61
2022/03/15 12:30:53;;;;;;;9.67;4.10;;;;;;;;;;4909330;29;20227;-61
2022/03/15 12:33:27;;;;;;;8.50;3.80;;;;;;;;;;4920032;29;20262;-62
2022/03/15 12:35:59;;;;;;;9.73;4.67;;;;;;;;;;4925865;29;20220;-62
2022/03/15 12:38:33;;;;;;;3.30;2.87;;;;;;;;;;4926669;29;20282;-61
2022/03/15 12:41:01;;;;;;;3.93;2.47;;;;;;;;;;4929782;29;20306;-62
2022/03/15 12:43:28;;;;;;;5.63;2.23;;;;;;;;;;4929389;29;20216;-61
2022/03/15 12:45:55;;;;;;;4.03;2.50;;;;;;;;;;4929490;29;20212;-62
2022/03/15 12:48:31;;;;;;;2.97;2.63;;;;;;;;;;4928357;29;20280;-61
2022/03/15 12:50:59;;;;;;;3.60;3.30;;;;;;;;;;4929745;29;20220;-62
2022/03/15 12:53:34;;;;;;;6.20;3.93;;;;;;;;;;4929575;29;20210;-60
2022/03/15 12:56:02;;;;;;;5.53;3.17;;;;;;;;;;4929708;29;20235;-61
2022/03/15 12:58:30;;;;;;;1.90;1.80;;;;;;;;;;4929809;29;20211;-61
2022/03/15 13:00:57;;;;;;;5.13;3.47;;;;;;;;;;4926177;29;20223;-61
2022/03/15 13:03:24;;;;;;;1.80;1.60;;;;;;;;;;4928367;29;20220;-62
2022/03/15 13:05:53;;;;;;;5.53;3.63;;;;;;;;;;4928167;29;20219;-59
2022/03/15 13:08:21;;;;;;;4.87;3.03;;;;;;;;;;4928727;29;20330;-61
2022/03/15 13:10:48;;;;;;;3.33;2.40;;;;;;;;;;4928881;29;20321;-61
2022/03/15 13:13:27;;;;;;;3.90;3.40;;;;;;;;;;4928289;29;20219;-61
2022/03/15 13:15:57;;;;;;;6.27;2.77;;;;;;;;;;4928177;29;20239;-62
2022/03/15 13:18:24;;;;;;;7.20;4.20;;;;;;;;;;4927537;29;20216;-62
2022/03/15 13:21:00;;;;;;;6.20;3.87;;;;;;;;;;4927961;29;20226;-61
2022/03/15 13:23:29;;;;;;;7.70;3.43;;;;;;;;;;4927922;29;20211;-62
2022/03/15 13:26:05;;;;;;;9.53;3.73;;;;;;;;;;4927700;29;20837;-62
2022/03/15 13:28:34;;;;;;;3.97;3.57;;;;;;;;;;4927482;29;20670;-62
2022/03/15 13:31:05;;;;;;;4.30;3.10;;;;;;;;;;4927655;29;20229;-65
2022/03/15 13:33:35;;;;;;;13.20;7.20;;;;;;;;;;4927099;29;20212;-62
2022/03/15 13:36:05;;;;;;;3.47;3.13;;;;;;;;;;4928371;29;20583;-62
2022/03/15 13:38:34;;;;;;;3.60;3.33;;;;;;;;;;4928075;29;20270;-62
2022/03/15 13:41:01;;;;;;;6.37;4.27;;;;;;;;;;4927812;29;20232;-62
2022/03/15 13:43:31;;;;;;;4.60;3.13;;;;;;;;;;4928063;29;20212;-63
2022/03/15 13:45:59;;;;;;;8.63;3.97;;;;;;;;;;4927683;29;20302;-63
2022/03/15 13:48:26;;;;;;;4.33;3.20;;;;;;;;;;4927984;29;20227;-63
2022/03/15 13:50:58;;;;;;;2.83;2.73;;;;;;;;;;4927951;29;20759;-63
2022/03/15 13:53:27;;;;;;;11.03;4.00;;;;;;;;;;4928123;29;20246;-63
2022/03/15 13:55:55;;;;;;;8.57;4.03;;;;;;;;;;4928399;29;20322;-64
2022/03/15 13:58:29;;;;;;;7.40;3.17;;;;;;;;;;4928817;29;20306;-62
2022/03/15 14:01:06;;;;;;;3.90;3.53;;;;;;;;;;4927964;29;20592;-63
2022/03/15 14:03:36;;;;;;;7.60;4.03;;;;;;;;;;4928114;29;20215;-64
2022/03/15 14:06:04;;;;;;;6.20;3.23;;;;;;;;;;4922624;29;20606;-62
2022/03/15 14:08:43;;;;;;;2.97;2.63;;;;;;;;;;4925915;29;20319;-61
2022/03/15 14:11:11;;;;;;;4.07;3.67;;;;;;;;;;4922968;29;20339;-66
2022/03/15 14:13:42;;;;;;;3.83;3.07;;;;;;;;;;4928128;29;20290;-63
2022/03/15 14:16:10;;;;;;;4.27;3.13;;;;;;;;;;4927943;29;20238;-62
2022/03/15 14:18:38;;;;;;;5.73;3.27;;;;;;;;;;4927883;29;20745;-64
2022/03/15 14:21:11;;;;;;;3.90;2.73;;;;;;;;;;4927529;29;20219;-62
2022/03/15 14:23:41;;;;;;;7.10;3.33;;;;;;;;;;4927868;29;20219;-59
2022/03/15 14:26:08;;;;;;;5.03;2.93;;;;;;;;;;4927260;29;20683;-63
2022/03/15 14:28:38;;;;;;;4.03;3.60;;;;;;;;;;4927586;29;20222;-62
2022/03/15 14:31:05;;;;;;;3.50;3.03;;;;;;;;;;4927718;29;20215;-66
2022/03/15 14:33:32;;;;;;;3.13;2.87;;;;;;;;;;4927521;29;20220;-61
2022/03/15 14:36:01;;;;;;;3.73;3.43;;;;;;;;;;4927407;29;20219;-62
2022/03/15 14:38:37;;;;;;;5.73;3.90;;;;;;;;;;4926988;29;20414;-62
2022/03/15 14:41:06;;;;;;;5.93;3.37;;;;;;;;;;4927464;29;20211;-63
2022/03/15 14:43:35;;;;;;;6.63;4.17;;;;;;;;;;4908124;29;20235;-64
2022/03/15 14:46:08;;;;;;;4.87;3.83;;;;;;;;;;4914955;29;20219;-64
2022/03/15 14:48:35;;;;;;;5.67;4.13;;;;;;;;;;4927521;29;20218;-63
2022/03/15 14:51:04;;;;;;;5.00;3.50;;;;;;;;;;4926773;29;20216;-62